Terminal Aerodrome Forecast
Issued by NWS Pocatello, ID

Home | Current Version | Previous Version | Text Only | Print | Product List | Glossary On
Versions: 1 2 3 4 5 6 7 8 9 10 11 12 13
000
FTUS45 KPIH 202320
TAFIDA
TAF
KIDA 202320Z 2100/2124 21011KT P6SM -SHRA OVC025
     FM210300 21011KT 6SM -SHRA BR SCT015 OVC025
     FM210900 21008KT 6SM BR VCSH SCT008 BKN015 OVC025
     FM212000 23008KT P6SM VCSH OVC035=

USA.gov is the U.S. government's official web portal to all federal, state and local government web resources and services.